createdAt,value
2022-08-01T00:00:54.004Z,96267.81
2022-08-01T00:03:23.437Z,96266.03
2022-08-01T00:05:51.461Z,96262.75
2022-08-01T00:08:19.522Z,96265.47
2022-08-01T00:10:47.571Z,96263.56
2022-08-01T00:13:15.606Z,96264.78
2022-08-01T00:15:51.836Z,96265.63
2022-08-01T00:18:24.104Z,96264.00
2022-08-01T00:20:52.264Z,96269.19
2022-08-01T00:23:20.282Z,96266.34
2022-08-01T00:25:48.386Z,96260.91
2022-08-01T00:28:17.285Z,96255.19
2022-08-01T00:30:45.369Z,96262.03
2022-08-01T00:33:13.508Z,96260.16
2022-08-01T00:35:42.941Z,96262.94
2022-08-01T00:38:12.021Z,96264.72
2022-08-01T00:40:40.084Z,96269.00
2022-08-01T00:43:08.181Z,96269.69
2022-08-01T00:45:36.270Z,96272.03
2022-08-01T00:48:04.439Z,96263.28
2022-08-01T00:50:32.532Z,96266.78
2022-08-01T00:53:02.246Z,96259.69
2022-08-01T00:55:31.628Z,96259.19
2022-08-01T00:58:03.363Z,96266.38
2022-08-01T01:00:52.055Z,96258.59
2022-08-01T01:03:23.871Z,96260.03
2022-08-01T01:06:08.121Z,96266.22
2022-08-01T01:08:40.525Z,96260.22
2022-08-01T01:11:11.744Z,96266.28
2022-08-01T01:13:50.072Z,96264.94
2022-08-01T01:16:19.900Z,96268.31
2022-08-01T01:18:48.746Z,96264.19
2022-08-01T01:21:27.830Z,96266.91
2022-08-01T01:23:56.912Z,96271.75
2022-08-01T01:26:30.778Z,96273.00
2022-08-01T01:29:08.102Z,96276.59
2022-08-01T01:31:37.958Z,96278.06
2022-08-01T01:34:06.202Z,96274.94
2022-08-01T01:36:34.353Z,96267.19
2022-08-01T01:39:02.403Z,96273.31
2022-08-01T01:41:30.473Z,96270.63
2022-08-01T01:43:58.559Z,96269.97
2022-08-01T01:46:29.026Z,96278.78
2022-08-01T01:48:57.939Z,96276.38
2022-08-01T01:51:26.960Z,96273.16
2022-08-01T01:53:55.192Z,96265.22
2022-08-01T01:56:23.430Z,96266.66
2022-08-01T01:58:52.223Z,96273.00
2022-08-01T02:02:06.033Z,96266.78
2022-08-01T02:04:09.800Z,96270.47
2022-08-01T02:06:38.646Z,96277.25
2022-08-01T02:09:06.766Z,96272.19
2022-08-01T02:11:34.841Z,96278.34
2022-08-01T02:14:03.539Z,96288.81
2022-08-01T02:16:32.196Z,96287.63
2022-08-01T02:19:00.917Z,96284.72
2022-08-01T02:21:31.011Z,96288.38
2022-08-01T02:24:05.730Z,96288.91
2022-08-01T02:26:34.112Z,96285.31
2022-08-01T02:29:03.531Z,96292.56
2022-08-01T02:31:32.021Z,96293.16
2022-08-01T02:34:03.174Z,96289.72
2022-08-01T02:36:33.549Z,96289.50
2022-08-01T02:39:02.686Z,96285.69
2022-08-01T02:41:30.809Z,96287.94
2022-08-01T02:44:00.024Z,96284.50
2022-08-01T02:46:30.446Z,96293.03
2022-08-01T02:48:58.531Z,96293.84
2022-08-01T02:51:27.019Z,96290.09
2022-08-01T02:53:57.160Z,96288.59
2022-08-01T02:56:25.616Z,96306.03
2022-08-01T02:58:53.706Z,96297.69
2022-08-01T03:01:21.790Z,96297.44
2022-08-01T03:03:50.347Z,96303.41
2022-08-01T03:06:18.411Z,96303.34
2022-08-01T03:08:46.484Z,96302.53
2022-08-01T03:11:15.996Z,96297.25
2022-08-01T03:13:44.727Z,96295.47
2022-08-01T03:16:13.029Z,96304.88
2022-08-01T03:18:41.130Z,96310.78
2022-08-01T03:21:09.209Z,96300.84
2022-08-01T03:23:37.986Z,96314.03
2022-08-01T03:26:06.377Z,96305.69
2022-08-01T03:28:35.831Z,96304.91
2022-08-01T03:31:03.896Z,96304.44
2022-08-01T03:33:32.017Z,96304.31
2022-08-01T03:36:00.175Z,96304.09
2022-08-01T03:38:28.466Z,96311.88
2022-08-01T03:40:57.940Z,96315.94
2022-08-01T03:43:29.241Z,96319.03
2022-08-01T03:45:58.674Z,96315.81
2022-08-01T03:48:31.091Z,96320.97
2022-08-01T03:50:59.161Z,96323.50
2022-08-01T03:53:28.529Z,96323.63
2022-08-01T03:55:56.561Z,96322.41
2022-08-01T03:58:24.603Z,96327.22
2022-08-01T04:00:52.667Z,96326.41
2022-08-01T04:03:22.084Z,96333.88
2022-08-01T04:05:50.149Z,96330.75
2022-08-01T04:08:18.244Z,96332.38
2022-08-01T04:10:46.444Z,96330.31
2022-08-01T04:13:18.529Z,96332.91
2022-08-01T04:15:46.666Z,96330.19
2022-08-01T04:18:14.753Z,96334.78
2022-08-01T04:20:44.220Z,96346.53
2022-08-01T04:23:13.341Z,96350.75
2022-08-01T04:25:41.630Z,96349.38
2022-08-01T04:28:12.055Z,96356.50
2022-08-01T04:30:40.302Z,96348.97
2022-08-01T04:33:08.709Z,96360.44
2022-08-01T04:36:04.078Z,96360.75
2022-08-01T04:38:28.437Z,96359.63
2022-08-01T04:40:56.625Z,96364.81
2022-08-01T04:43:25.018Z,96366.41
2022-08-01T04:45:53.171Z,96374.81
2022-08-01T04:48:22.708Z,96369.69
2022-08-01T04:50:51.166Z,96367.53
2022-08-01T04:53:22.955Z,96373.44
2022-08-01T04:55:52.441Z,96371.38
2022-08-01T04:58:20.495Z,96371.50
2022-08-01T05:00:48.642Z,96375.13
2022-08-01T05:03:16.751Z,96363.75
2022-08-01T05:05:44.835Z,96376.72
2022-08-01T05:08:13.012Z,96378.97
2022-08-01T05:10:41.209Z,96373.28
2022-08-01T05:13:10.901Z,96383.78
2022-08-01T05:15:39.011Z,96380.72
2022-08-01T05:18:08.761Z,96389.44
2022-08-01T05:20:37.967Z,96384.47
2022-08-01T05:23:06.157Z,96384.53
2022-08-01T05:25:58.072Z,96390.69
2022-08-01T05:28:24.018Z,96391.56
2022-08-01T05:30:55.672Z,96399.47
2022-08-01T05:33:23.775Z,96404.59
2022-08-01T05:35:51.806Z,96396.19
2022-08-01T05:38:19.874Z,96404.09
2022-08-01T05:40:47.902Z,96407.91
2022-08-01T05:43:15.972Z,96412.56
2022-08-01T05:45:45.598Z,96411.34
2022-08-01T05:48:13.648Z,96421.03
2022-08-01T05:50:41.856Z,96413.59
2022-08-01T05:53:10.058Z,96412.84
2022-08-01T05:55:38.235Z,96409.00
2022-08-01T05:58:06.278Z,96414.66
2022-08-01T06:00:34.324Z,96418.06
2022-08-01T06:03:03.753Z,96413.97
2022-08-01T06:05:31.886Z,96416.06
2022-08-01T06:08:00.146Z,96415.34
2022-08-01T06:10:28.316Z,96417.03
2022-08-01T06:12:56.433Z,96412.38
2022-08-01T06:15:24.547Z,96423.00
2022-08-01T06:17:52.626Z,96429.06
2022-08-01T06:20:22.234Z,96429.69
2022-08-01T06:22:52.459Z,96424.53
2022-08-01T06:25:21.366Z,96426.25
2022-08-01T06:27:50.517Z,96424.19
2022-08-01T06:30:18.601Z,96443.47
2022-08-01T06:32:46.836Z,96432.38
2022-08-01T06:35:14.999Z,96434.53
2022-08-01T06:37:45.839Z,96430.63
2022-08-01T06:40:17.146Z,96425.59
2022-08-01T06:42:46.745Z,96432.22
2022-08-01T06:45:15.112Z,96431.28
2022-08-01T06:47:43.657Z,96436.91
2022-08-01T06:50:12.103Z,96427.09
2022-08-01T06:52:40.714Z,96430.91
2022-08-01T06:55:11.000Z,96434.31
2022-08-01T06:57:39.097Z,96439.72
2022-08-01T07:00:09.733Z,96436.47
2022-08-01T07:02:38.183Z,96438.88
2022-08-01T07:05:06.648Z,96444.06
2022-08-01T07:07:34.694Z,96433.28
2022-08-01T07:10:02.817Z,96445.22
2022-08-01T07:12:33.805Z,96436.94
2022-08-01T07:15:01.932Z,96435.13
2022-08-01T07:17:29.942Z,96438.69
2022-08-01T07:19:57.991Z,96432.19
2022-08-01T07:22:26.148Z,96438.88
2022-08-01T07:24:55.056Z,96440.13
2022-08-01T07:27:25.754Z,96435.69
2022-08-01T07:29:55.640Z,96433.13
2022-08-01T07:32:24.252Z,96438.38
2022-08-01T07:34:52.483Z,96427.09
2022-08-01T07:37:48.158Z,96431.84
2022-08-01T07:40:09.156Z,96429.84
2022-08-01T07:42:37.238Z,96438.97
2022-08-01T07:45:07.134Z,96432.41
2022-08-01T07:47:35.221Z,96433.50
2022-08-01T07:50:03.612Z,96438.19
2022-08-01T07:52:32.267Z,96437.53
2022-08-01T07:55:00.903Z,96435.75
2022-08-01T07:57:28.998Z,96434.38
2022-08-01T07:59:57.315Z,96436.22
2022-08-01T08:02:26.886Z,96438.06
2022-08-01T08:04:55.181Z,96436.66
2022-08-01T08:07:23.255Z,96434.88
2022-08-01T08:09:51.526Z,96438.81
2022-08-01T08:12:28.825Z,96433.88
2022-08-01T08:14:59.395Z,96437.50
2022-08-01T08:17:29.068Z,96426.97
2022-08-01T08:20:04.146Z,96435.06
2022-08-01T08:22:34.744Z,96428.41
2022-08-01T08:25:03.490Z,96428.25
2022-08-01T08:27:31.770Z,96425.00
2022-08-01T08:29:59.791Z,96424.13
2022-08-01T08:32:29.264Z,96422.69
2022-08-01T08:34:57.419Z,96430.03
2022-08-01T08:37:25.478Z,96419.72
2022-08-01T08:39:59.543Z,96424.81
2022-08-01T08:42:27.771Z,96432.16
2022-08-01T08:44:56.331Z,96414.88
2022-08-01T08:47:24.618Z,96426.44
2022-08-01T08:49:55.304Z,96408.47
2022-08-01T08:52:23.752Z,96420.16
2022-08-01T08:54:52.538Z,96414.19
2022-08-01T08:57:21.087Z,96415.19
2022-08-01T08:59:49.429Z,96421.22
2022-08-01T09:02:17.625Z,96414.03
2022-08-01T09:04:45.754Z,96413.25
2022-08-01T09:07:15.494Z,96422.28
2022-08-01T09:09:43.865Z,96423.06
2022-08-01T09:12:12.642Z,96411.88
2022-08-01T09:14:46.385Z,96419.06
2022-08-01T09:17:14.587Z,96416.88
2022-08-01T09:19:43.206Z,96423.31
2022-08-01T09:22:11.983Z,96416.50
2022-08-01T09:24:42.012Z,96406.97
2022-08-01T09:27:22.329Z,96413.75
2022-08-01T09:30:01.162Z,96420.97
2022-08-01T09:32:35.287Z,96417.88
2022-08-01T09:35:19.147Z,96417.34
2022-08-01T09:37:47.474Z,96416.31
2022-08-01T09:40:18.280Z,96422.28
2022-08-01T09:42:49.787Z,96407.03
2022-08-01T09:45:41.124Z,96407.59
2022-08-01T09:48:13.047Z,96407.59
2022-08-01T09:50:42.079Z,96413.00
2022-08-01T09:53:10.400Z,96412.69
2022-08-01T09:55:56.622Z,96408.91
2022-08-01T09:58:24.828Z,96414.41
2022-08-01T10:00:59.934Z,96399.09
2022-08-01T10:03:30.721Z,96404.28
2022-08-01T10:05:59.431Z,96400.78
2022-08-01T10:08:28.474Z,96407.81
2022-08-01T10:11:12.467Z,96395.78
2022-08-01T10:13:40.789Z,96402.69
2022-08-01T10:16:08.882Z,96398.84
2022-08-01T10:18:37.231Z,96388.09
2022-08-01T10:21:08.632Z,96393.00
2022-08-01T10:23:41.223Z,96387.81
2022-08-01T10:26:09.796Z,96388.81
2022-08-01T10:28:39.907Z,96393.31
2022-08-01T10:31:12.566Z,96388.94
2022-08-01T10:33:52.724Z,96386.78
2022-08-01T10:36:22.547Z,96387.41
2022-08-01T10:38:51.035Z,96379.34
2022-08-01T10:41:19.772Z,96377.31
2022-08-01T10:43:49.228Z,96370.72
2022-08-01T10:46:17.786Z,96371.38
2022-08-01T10:48:48.794Z,96373.13
2022-08-01T10:51:18.943Z,96366.63
2022-08-01T10:53:50.715Z,96362.75
2022-08-01T10:56:26.985Z,96366.25
2022-08-01T10:59:06.577Z,96362.13
2022-08-01T11:01:45.006Z,96365.28
2022-08-01T11:04:17.069Z,96354.50
2022-08-01T11:06:52.154Z,96358.25
2022-08-01T11:09:24.808Z,96368.63
2022-08-01T11:12:13.086Z,96347.84
2022-08-01T11:15:02.484Z,96358.22
2022-08-01T11:17:37.844Z,96348.16
2022-08-01T11:20:10.361Z,96351.97
2022-08-01T11:22:56.946Z,96337.44
2022-08-01T11:26:06.246Z,96336.53
2022-08-01T11:28:32.591Z,96338.19
2022-08-01T11:31:18.124Z,96332.72
2022-08-01T11:33:51.835Z,96337.78
2022-08-01T11:36:56.840Z,96338.69
2022-08-01T11:39:15.965Z,96320.84
2022-08-01T11:41:45.025Z,96330.84
2022-08-01T11:44:14.473Z,96330.59
2022-08-01T11:46:52.827Z,96331.88
2022-08-01T11:49:26.360Z,96327.84
2022-08-01T11:52:01.383Z,96330.19
2022-08-01T11:54:35.583Z,96330.53
2022-08-01T11:57:05.994Z,96323.56
2022-08-01T11:59:41.038Z,96321.34
2022-08-01T12:02:19.586Z,96326.97
2022-08-01T12:05:00.917Z,96323.59
2022-08-01T12:07:30.678Z,96333.00
2022-08-01T12:09:59.629Z,96330.91
2022-08-01T12:12:27.719Z,96316.00
2022-08-01T12:14:57.161Z,96310.53
2022-08-01T12:17:35.756Z,96317.78
2022-08-01T12:20:06.173Z,96308.88
2022-08-01T12:22:34.387Z,96303.09
2022-08-01T12:25:09.487Z,96308.66
2022-08-01T12:27:38.078Z,96297.09
2022-08-01T12:30:07.257Z,96307.06
2022-08-01T12:32:36.826Z,96309.72
2022-08-01T12:35:07.152Z,96316.22
2022-08-01T12:37:37.135Z,96312.63
2022-08-01T12:40:11.387Z,96310.94
2022-08-01T12:42:40.588Z,96316.63
2022-08-01T12:45:09.718Z,96325.50
2022-08-01T12:47:38.030Z,96317.34
2022-08-01T12:50:08.240Z,96316.38
2022-08-01T12:52:36.688Z,96308.53
2022-08-01T12:55:06.467Z,96315.09
2022-08-01T12:57:38.318Z,96311.03
2022-08-01T13:00:07.361Z,96305.63
2022-08-01T13:02:35.476Z,96308.38
2022-08-01T13:05:04.036Z,96302.34
2022-08-01T13:07:45.626Z,96298.72
2022-08-01T13:10:14.605Z,96304.97
2022-08-01T13:12:43.088Z,96299.56
2022-08-01T13:15:21.290Z,96301.53
2022-08-01T13:17:49.381Z,96295.06
2022-08-01T13:20:23.974Z,96295.84
2022-08-01T13:22:53.433Z,96290.31
2022-08-01T13:25:22.747Z,96291.94
2022-08-01T13:27:53.576Z,96282.28
2022-08-01T13:30:23.033Z,96275.44
2022-08-01T13:32:59.294Z,96273.50
2022-08-01T13:35:27.619Z,96281.25
2022-08-01T13:37:57.732Z,96270.75
2022-08-01T13:40:26.377Z,96292.34
2022-08-01T13:42:54.751Z,96277.59
2022-08-01T13:45:23.299Z,96281.06
2022-08-01T13:48:05.319Z,96294.75
2022-08-01T13:50:40.940Z,96297.41
2022-08-01T13:53:10.744Z,96306.94
2022-08-01T13:55:39.046Z,96310.56
2022-08-01T13:58:07.475Z,96311.50
2022-08-01T14:00:35.913Z,96307.53
2022-08-01T14:03:04.075Z,96307.69
2022-08-01T14:05:32.156Z,96313.59
2022-08-01T14:08:00.530Z,96315.72
2022-08-01T14:10:30.952Z,96319.91
2022-08-01T14:12:59.950Z,96318.53
2022-08-01T14:15:38.147Z,96320.47
2022-08-01T14:18:07.953Z,96333.31
2022-08-01T14:20:38.079Z,96325.34
2022-08-01T14:23:06.349Z,96337.66
2022-08-01T14:26:00.760Z,96334.06
2022-08-01T14:28:28.876Z,96341.16
2022-08-01T14:30:57.573Z,96345.84
2022-08-01T14:33:25.745Z,96358.84
2022-08-01T14:36:05.775Z,96358.56
2022-08-01T14:38:41.938Z,96350.72
2022-08-01T14:41:11.669Z,96349.03
2022-08-01T14:43:40.104Z,96351.94
2022-08-01T14:46:11.105Z,96337.84
2022-08-01T14:48:39.283Z,96336.41
2022-08-01T14:51:08.279Z,96335.06
2022-08-01T14:53:37.381Z,96336.06
2022-08-01T14:56:05.735Z,96323.66
2022-08-01T14:58:35.334Z,96336.13
2022-08-01T15:01:05.359Z,96331.81
2022-08-01T15:03:33.859Z,96328.56
2022-08-01T15:06:02.448Z,96339.81
2022-08-01T15:08:31.175Z,96334.88
2022-08-01T15:10:59.282Z,96344.34
2022-08-01T15:13:27.472Z,96342.63
2022-08-01T15:16:00.092Z,96349.22
2022-08-01T15:18:28.599Z,96347.25
2022-08-01T15:20:56.637Z,96346.53
2022-08-01T15:23:24.818Z,96342.66
2022-08-01T15:25:52.908Z,96340.69
2022-08-01T15:28:21.407Z,96344.22
2022-08-01T15:30:49.459Z,96335.00
2022-08-01T15:33:18.978Z,96335.00
2022-08-01T15:35:47.115Z,96344.16
2022-08-01T15:38:15.242Z,96355.34
2022-08-01T15:40:43.311Z,96357.13
2022-08-01T15:43:15.554Z,96351.94
2022-08-01T15:45:48.377Z,96361.63
2022-08-01T15:48:17.007Z,96359.50
2022-08-01T15:50:46.507Z,96354.22
2022-08-01T15:53:14.645Z,96361.34
2022-08-01T15:55:52.373Z,96362.34
2022-08-01T15:58:21.051Z,96370.34
2022-08-01T16:00:49.216Z,96361.41
2022-08-01T16:03:17.299Z,96354.66
2022-08-01T16:05:46.787Z,96356.97
2022-08-01T16:08:15.014Z,96345.78
2022-08-01T16:10:43.359Z,96362.72
2022-08-01T16:13:11.457Z,96352.47
2022-08-01T16:15:40.274Z,96341.72
2022-08-01T16:18:08.738Z,96345.25
2022-08-01T16:20:40.161Z,96353.53
2022-08-01T16:23:14.294Z,96346.84
2022-08-01T16:25:43.795Z,96349.19
2022-08-01T16:28:12.049Z,96351.13
2022-08-01T16:30:54.672Z,96348.94
2022-08-01T16:33:42.872Z,96352.53
2022-08-01T16:36:17.265Z,96347.91
2022-08-01T16:38:46.779Z,96357.25
2022-08-01T16:41:19.742Z,96359.13
2022-08-01T16:43:53.380Z,96352.03
2022-08-01T16:46:23.127Z,96356.84
2022-08-01T16:48:51.401Z,96356.84
2022-08-01T16:51:19.821Z,96351.34
2022-08-01T16:53:49.425Z,96346.03
2022-08-01T16:56:17.562Z,96344.06
2022-08-01T16:58:45.586Z,96340.84
2022-08-01T17:01:59.351Z,96343.59
2022-08-01T17:04:02.104Z,96332.59
2022-08-01T17:06:30.272Z,96341.31
2022-08-01T17:08:59.679Z,96333.94
2022-08-01T17:11:27.736Z,96339.59
2022-08-01T17:13:55.805Z,96326.63
2022-08-01T17:16:24.052Z,96321.06
2022-08-01T17:18:52.146Z,96320.78
2022-08-01T17:21:20.174Z,96312.97
2022-08-01T17:23:48.209Z,96312.31
2022-08-01T17:26:17.593Z,96318.34
2022-08-01T17:28:45.599Z,96326.19
2022-08-01T17:31:13.629Z,96320.97
2022-08-01T17:33:44.877Z,96323.38
2022-08-01T17:36:14.380Z,96326.66
2022-08-01T17:38:42.480Z,96324.97
2022-08-01T17:41:10.565Z,96328.25
2022-08-01T17:43:50.945Z,96326.34
2022-08-01T17:46:18.976Z,96325.78
2022-08-01T17:48:47.116Z,96324.38
2022-08-01T17:51:19.421Z,96334.31
2022-08-01T17:53:57.159Z,96326.88
2022-08-01T17:56:26.073Z,96329.88
2022-08-01T17:58:55.384Z,96340.59
2022-08-01T18:01:27.028Z,96338.69
2022-08-01T18:03:55.814Z,96342.97
2022-08-01T18:06:26.183Z,96336.44
2022-08-01T18:08:56.024Z,96337.44
2022-08-01T18:11:24.718Z,96334.34
2022-08-01T18:13:59.611Z,96333.81
2022-08-01T18:16:27.942Z,96335.16
2022-08-01T18:18:56.279Z,96326.97
2022-08-01T18:21:24.313Z,96329.31
2022-08-01T18:23:52.516Z,96331.13
2022-08-01T18:26:21.013Z,96332.78
2022-08-01T18:28:49.419Z,96347.94
2022-08-01T18:31:20.499Z,96345.41
2022-08-01T18:33:48.967Z,96349.66
2022-08-01T18:36:33.190Z,96345.22
2022-08-01T18:39:04.279Z,96351.34
2022-08-01T18:41:32.864Z,96344.09
2022-08-01T18:44:05.792Z,96360.41
2022-08-01T18:46:38.536Z,96353.25
2022-08-01T18:49:07.133Z,96347.28
2022-08-01T18:51:38.899Z,96350.28
2022-08-01T18:54:11.216Z,96351.84
2022-08-01T18:56:39.223Z,96353.66
2022-08-01T18:59:07.413Z,96356.16
2022-08-01T19:01:35.498Z,96354.94
2022-08-01T19:04:04.998Z,96361.31
2022-08-01T19:06:32.966Z,96361.97
2022-08-01T19:09:02.509Z,96365.50
2022-08-01T19:11:30.898Z,96373.69
2022-08-01T19:13:58.953Z,96378.22
2022-08-01T19:16:27.466Z,96381.59
2022-08-01T19:18:55.727Z,96391.47
2022-08-01T19:21:25.302Z,96396.97
2022-08-01T19:24:10.750Z,96395.06
2022-08-01T19:26:40.243Z,96403.59
2022-08-01T19:29:09.671Z,96409.06
2022-08-01T19:31:39.587Z,96416.91
2022-08-01T19:34:07.658Z,96409.00
2022-08-01T19:36:37.036Z,96408.19
2022-08-01T19:39:05.342Z,96409.81
2022-08-01T19:41:33.317Z,96409.53
2022-08-01T19:44:03.606Z,96420.25
2022-08-01T19:46:31.607Z,96415.06
2022-08-01T19:48:59.696Z,96427.97
2022-08-01T19:51:33.149Z,96430.31
2022-08-01T19:54:04.743Z,96431.25
2022-08-01T19:56:33.559Z,96433.25
2022-08-01T19:59:01.701Z,96427.03
2022-08-01T20:01:29.826Z,96429.00
2022-08-01T20:03:58.522Z,96431.00
2022-08-01T20:06:30.168Z,96431.63
2022-08-01T20:08:58.852Z,96431.06
2022-08-01T20:11:28.194Z,96444.50
2022-08-01T20:13:56.845Z,96457.69
2022-08-01T20:16:25.101Z,96454.63
2022-08-01T20:18:53.212Z,96457.44
2022-08-01T20:21:21.464Z,96455.00
2022-08-01T20:23:49.535Z,96444.34
2022-08-01T20:26:18.061Z,96443.50
2022-08-01T20:28:48.046Z,96442.69
2022-08-01T20:31:16.971Z,96445.25
2022-08-01T20:33:45.734Z,96439.03
2022-08-01T20:36:25.846Z,96430.97
2022-08-01T20:38:54.541Z,96422.97
2022-08-01T20:41:23.259Z,96424.13
2022-08-01T20:43:55.024Z,96410.88
2022-08-01T20:46:24.620Z,96406.06
2022-08-01T20:48:53.832Z,96420.88
2022-08-01T20:51:22.152Z,96425.91
2022-08-01T20:53:52.624Z,96420.50
2022-08-01T20:56:26.830Z,96410.31
2022-08-01T20:58:59.622Z,96417.66
2022-08-01T21:01:29.323Z,96427.41
2022-08-01T21:04:06.205Z,96432.72
2022-08-01T21:06:35.514Z,96442.09
2022-08-01T21:09:04.941Z,96439.06
2022-08-01T21:11:38.708Z,96445.28
2022-08-01T21:14:08.526Z,96449.94
2022-08-01T21:16:37.838Z,96457.56
2022-08-01T21:19:19.785Z,96458.09
2022-08-01T21:21:50.388Z,96464.25
2022-08-01T21:24:18.865Z,96453.44
2022-08-01T21:26:47.098Z,96460.28
2022-08-01T21:29:17.906Z,96468.16
2022-08-01T21:31:45.924Z,96473.03
2022-08-01T21:34:13.918Z,96477.72
2022-08-01T21:36:41.947Z,96486.50
2022-08-01T21:39:09.984Z,96500.78
2022-08-01T21:41:56.635Z,96512.06
2022-08-01T21:44:29.218Z,96528.22
2022-08-01T21:46:57.603Z,96521.50
2022-08-01T21:49:25.754Z,96527.75
2022-08-01T21:51:55.538Z,96519.56
2022-08-01T21:54:26.095Z,96542.47
2022-08-01T21:56:56.287Z,96522.66
2022-08-01T21:59:25.197Z,96530.25
2022-08-01T22:01:56.947Z,96533.63
2022-08-01T22:04:39.978Z,96527.19
2022-08-01T22:07:08.133Z,96531.81
2022-08-01T22:09:36.962Z,96521.81
2022-08-01T22:12:05.556Z,96530.47
2022-08-01T22:14:33.745Z,96517.41
2022-08-01T22:17:03.132Z,96517.31
2022-08-01T22:19:45.716Z,96519.63
2022-08-01T22:22:42.371Z,96511.06
2022-08-01T22:25:03.088Z,96518.94
2022-08-01T22:28:06.072Z,96520.06
2022-08-01T22:30:19.199Z,96519.25
2022-08-01T22:33:15.729Z,96512.97
2022-08-01T22:35:36.629Z,96510.94
2022-08-01T22:38:09.957Z,96512.66
2022-08-01T22:40:38.678Z,96513.81
2022-08-01T22:43:08.365Z,96514.94
2022-08-01T22:45:38.412Z,96517.47
2022-08-01T22:48:09.688Z,96513.44
2022-08-01T22:50:39.192Z,96518.91
2022-08-01T22:53:11.753Z,96513.53
2022-08-01T22:55:57.934Z,96517.09
2022-08-01T22:58:27.602Z,96517.09
2022-08-01T23:00:56.326Z,96513.00
2022-08-01T23:03:27.937Z,96505.78
2022-08-01T23:05:57.382Z,96508.25
2022-08-01T23:08:25.381Z,96507.69
2022-08-01T23:10:53.551Z,96506.88
2022-08-01T23:13:21.861Z,96503.00
2022-08-01T23:15:52.243Z,96507.88
2022-08-01T23:18:20.878Z,96507.88
2022-08-01T23:20:50.290Z,96492.63
2022-08-01T23:23:18.303Z,96495.53
2022-08-01T23:25:59.229Z,96493.09
2022-08-01T23:28:27.487Z,96492.66
2022-08-01T23:30:55.499Z,96486.97
2022-08-01T23:33:23.563Z,96478.06
2022-08-01T23:35:52.991Z,96483.66
2022-08-01T23:38:21.163Z,96480.19
2022-08-01T23:40:50.096Z,96491.69
2022-08-01T23:43:18.123Z,96502.16
2022-08-01T23:46:02.722Z,96495.66
2022-08-01T23:48:33.273Z,96504.47
2022-08-01T23:51:02.626Z,96504.84
2022-08-01T23:53:31.405Z,96510.41
2022-08-01T23:56:02.464Z,96517.50
2022-08-01T23:58:31.133Z,96524.63
